sensor_id;sensor_type;location;lat;lon;timestamp;P1;durP1;ratioP1;P2;durP2;ratioP2
63320;SDS011;49449;48.800;9.534;2023-06-04T00:00:02;7.35;;;6.20;;
63320;SDS011;49449;48.800;9.534;2023-06-04T00:02:30;6.90;;;6.22;;
63320;SDS011;49449;48.800;9.534;2023-06-04T00:04:58;7.30;;;5.85;;
63320;SDS011;49449;48.800;9.534;2023-06-04T00:07:27;7.32;;;5.80;;
63320;SDS011;49449;48.800;9.534;2023-06-04T00:09:56;8.20;;;6.50;;
63320;SDS011;49449;48.800;9.534;2023-06-04T00:12:23;8.18;;;6.00;;
63320;SDS011;49449;48.800;9.534;2023-06-04T00:14:51;7.97;;;6.22;;
63320;SDS011;49449;48.800;9.534;2023-06-04T00:17:19;7.80;;;6.07;;
63320;SDS011;49449;48.800;9.534;2023-06-04T00:19:47;8.32;;;5.70;;
63320;SDS011;49449;48.800;9.534;2023-06-04T00:22:15;6.65;;;5.97;;
63320;SDS011;49449;48.800;9.534;2023-06-04T00:24:44;8.85;;;6.20;;
63320;SDS011;49449;48.800;9.534;2023-06-04T00:27:11;6.72;;;5.35;;
63320;SDS011;49449;48.800;9.534;2023-06-04T00:29:39;8.57;;;6.35;;
63320;SDS011;49449;48.800;9.534;2023-06-04T00:32:07;7.20;;;5.78;;
63320;SDS011;49449;48.800;9.534;2023-06-04T00:34:35;8.50;;;6.00;;
63320;SDS011;49449;48.800;9.534;2023-06-04T00:37:03;6.85;;;5.40;;
63320;SDS011;49449;48.800;9.534;2023-06-04T00:39:32;6.65;;;5.68;;
63320;SDS011;49449;48.800;9.534;2023-06-04T00:42:02;7.20;;;5.82;;
63320;SDS011;49449;48.800;9.534;2023-06-04T00:44:30;7.60;;;6.07;;
63320;SDS011;49449;48.800;9.534;2023-06-04T00:46:58;6.28;;;5.25;;
63320;SDS011;49449;48.800;9.534;2023-06-04T00:49:26;7.85;;;5.43;;
63320;SDS011;49449;48.800;9.534;2023-06-04T00:51:54;6.22;;;5.38;;
63320;SDS011;49449;48.800;9.534;2023-06-04T00:54:22;6.50;;;5.45;;
63320;SDS011;49449;48.800;9.534;2023-06-04T00:56:50;8.05;;;5.90;;
63320;SDS011;49449;48.800;9.534;2023-06-04T00:59:20;6.20;;;5.25;;
63320;SDS011;49449;48.800;9.534;2023-06-04T01:01:49;6.32;;;5.50;;
63320;SDS011;49449;48.800;9.534;2023-06-04T01:04:21;7.28;;;5.40;;
63320;SDS011;49449;48.800;9.534;2023-06-04T01:06:53;6.90;;;5.75;;
63320;SDS011;49449;48.800;9.534;2023-06-04T01:09:25;6.70;;;5.15;;
63320;SDS011;49449;48.800;9.534;2023-06-04T01:11:54;6.30;;;5.43;;
63320;SDS011;49449;48.800;9.534;2023-06-04T01:14:26;9.30;;;5.70;;
63320;SDS011;49449;48.800;9.534;2023-06-04T01:16:56;7.68;;;5.78;;
63320;SDS011;49449;48.800;9.534;2023-06-04T01:22:36;7.50;;;6.57;;
63320;SDS011;49449;48.800;9.534;2023-06-04T01:25:09;6.68;;;5.72;;
63320;SDS011;49449;48.800;9.534;2023-06-04T01:27:46;6.93;;;5.57;;
63320;SDS011;49449;48.800;9.534;2023-06-04T01:30:18;6.65;;;5.07;;
63320;SDS011;49449;48.800;9.534;2023-06-04T01:32:47;7.78;;;5.10;;
63320;SDS011;49449;48.800;9.534;2023-06-04T01:35:15;8.35;;;5.38;;
63320;SDS011;49449;48.800;9.534;2023-06-04T01:37:43;6.07;;;5.47;;
63320;SDS011;49449;48.800;9.534;2023-06-04T01:40:11;7.07;;;6.22;;
63320;SDS011;49449;48.800;9.534;2023-06-04T01:42:40;7.45;;;5.25;;
63320;SDS011;49449;48.800;9.534;2023-06-04T01:45:08;6.80;;;6.10;;
63320;SDS011;49449;48.800;9.534;2023-06-04T01:47:38;6.38;;;5.00;;
63320;SDS011;49449;48.800;9.534;2023-06-04T01:50:06;7.57;;;5.63;;
63320;SDS011;49449;48.800;9.534;2023-06-04T01:52:35;7.75;;;5.70;;
63320;SDS011;49449;48.800;9.534;2023-06-04T01:55:04;6.97;;;5.30;;
63320;SDS011;49449;48.800;9.534;2023-06-04T01:57:34;5.50;;;5.00;;
63320;SDS011;49449;48.800;9.534;2023-06-04T02:00:03;6.35;;;4.90;;
63320;SDS011;49449;48.800;9.534;2023-06-04T02:02:33;6.13;;;4.90;;
63320;SDS011;49449;48.800;9.534;2023-06-04T02:05:03;5.60;;;4.95;;
63320;SDS011;49449;48.800;9.534;2023-06-04T02:07:33;6.80;;;6.07;;
63320;SDS011;49449;48.800;9.534;2023-06-04T02:10:04;6.75;;;5.43;;
63320;SDS011;49449;48.800;9.534;2023-06-04T02:12:36;6.10;;;5.47;;
63320;SDS011;49449;48.800;9.534;2023-06-04T02:15:05;7.28;;;5.03;;
63320;SDS011;49449;48.800;9.534;2023-06-04T02:17:34;7.43;;;5.25;;
63320;SDS011;49449;48.800;9.534;2023-06-04T02:20:06;7.93;;;4.85;;
63320;SDS011;49449;48.800;9.534;2023-06-04T02:22:36;7.05;;;5.65;;
63320;SDS011;49449;48.800;9.534;2023-06-04T02:25:04;7.53;;;5.10;;
63320;SDS011;49449;48.800;9.534;2023-06-04T02:27:35;6.57;;;5.20;;
63320;SDS011;49449;48.800;9.534;2023-06-04T02:30:03;7.15;;;5.50;;
63320;SDS011;49449;48.800;9.534;2023-06-04T02:32:32;5.75;;;4.90;;
63320;SDS011;49449;48.800;9.534;2023-06-04T02:35:02;6.57;;;5.00;;
63320;SDS011;49449;48.800;9.534;2023-06-04T02:37:32;5.90;;;4.97;;
63320;SDS011;49449;48.800;9.534;2023-06-04T02:40:00;5.60;;;4.75;;
63320;SDS011;49449;48.800;9.534;2023-06-04T02:42:27;6.00;;;5.03;;
63320;SDS011;49449;48.800;9.534;2023-06-04T02:44:55;7.38;;;4.78;;
63320;SDS011;49449;48.800;9.534;2023-06-04T02:47:23;5.60;;;4.65;;
63320;SDS011;49449;48.800;9.534;2023-06-04T02:49:51;7.28;;;5.63;;
63320;SDS011;49449;48.800;9.534;2023-06-04T02:52:19;4.78;;;3.92;;
63320;SDS011;49449;48.800;9.534;2023-06-04T02:54:50;5.28;;;4.38;;
63320;SDS011;49449;48.800;9.534;2023-06-04T02:57:18;5.97;;;4.32;;
63320;SDS011;49449;48.800;9.534;2023-06-04T02:59:45;9.45;;;4.50;;
63320;SDS011;49449;48.800;9.534;2023-06-04T03:02:13;4.63;;;3.47;;
63320;SDS011;49449;48.800;9.534;2023-06-04T03:04:42;5.47;;;3.55;;
63320;SDS011;49449;48.800;9.534;2023-06-04T03:07:10;3.60;;;3.05;;
63320;SDS011;49449;48.800;9.534;2023-06-04T03:09:38;5.88;;;3.10;;
63320;SDS011;49449;48.800;9.534;2023-06-04T03:12:08;4.25;;;3.33;;
63320;SDS011;49449;48.800;9.534;2023-06-04T03:14:36;4.70;;;2.90;;
63320;SDS011;49449;48.800;9.534;2023-06-04T03:17:05;3.38;;;2.67;;
63320;SDS011;49449;48.800;9.534;2023-06-04T03:19:37;5.03;;;2.83;;
63320;SDS011;49449;48.800;9.534;2023-06-04T03:22:06;4.72;;;2.88;;
63320;SDS011;49449;48.800;9.534;2023-06-04T03:24:36;3.40;;;2.40;;
63320;SDS011;49449;48.800;9.534;2023-06-04T03:27:06;4.72;;;2.90;;
63320;SDS011;49449;48.800;9.534;2023-06-04T03:29:36;5.13;;;3.25;;
63320;SDS011;49449;48.800;9.534;2023-06-04T03:32:05;4.05;;;3.38;;
63320;SDS011;49449;48.800;9.534;2023-06-04T03:34:33;5.28;;;3.20;;
63320;SDS011;49449;48.800;9.534;2023-06-04T03:37:01;3.38;;;2.78;;
63320;SDS011;49449;48.800;9.534;2023-06-04T03:39:29;4.43;;;3.38;;
63320;SDS011;49449;48.800;9.534;2023-06-04T03:41:57;4.28;;;3.50;;
63320;SDS011;49449;48.800;9.534;2023-06-04T03:44:26;4.60;;;3.67;;
63320;SDS011;49449;48.800;9.534;2023-06-04T03:46:54;3.70;;;3.40;;
63320;SDS011;49449;48.800;9.534;2023-06-04T03:49:22;5.38;;;4.43;;
63320;SDS011;49449;48.800;9.534;2023-06-04T03:51:50;4.57;;;4.10;;
63320;SDS011;49449;48.800;9.534;2023-06-04T03:54:17;5.55;;;4.05;;
63320;SDS011;49449;48.800;9.534;2023-06-04T03:56:46;4.60;;;3.53;;
63320;SDS011;49449;48.800;9.534;2023-06-04T03:59:14;4.20;;;3.80;;
63320;SDS011;49449;48.800;9.534;2023-06-04T04:01:43;4.68;;;3.90;;
63320;SDS011;49449;48.800;9.534;2023-06-04T04:04:11;6.20;;;4.05;;
63320;SDS011;49449;48.800;9.534;2023-06-04T04:06:38;4.35;;;3.95;;
63320;SDS011;49449;48.800;9.534;2023-06-04T04:09:06;5.35;;;4.00;;
63320;SDS011;49449;48.800;9.534;2023-06-04T04:11:34;5.15;;;4.03;;
63320;SDS011;49449;48.800;9.534;2023-06-04T04:14:02;4.80;;;3.92;;
63320;SDS011;49449;48.800;9.534;2023-06-04T04:16:30;4.05;;;3.65;;
63320;SDS011;49449;48.800;9.534;2023-06-04T04:18:59;3.92;;;3.47;;
63320;SDS011;49449;48.800;9.534;2023-06-04T04:21:26;4.47;;;3.85;;
63320;SDS011;49449;48.800;9.534;2023-06-04T04:23:54;4.88;;;4.20;;
63320;SDS011;49449;48.800;9.534;2023-06-04T04:26:22;4.85;;;3.88;;
63320;SDS011;49449;48.800;9.534;2023-06-04T04:28:53;3.83;;;3.28;;
63320;SDS011;49449;48.800;9.534;2023-06-04T04:31:24;4.70;;;3.67;;
63320;SDS011;49449;48.800;9.534;2023-06-04T04:33:52;4.07;;;3.40;;
63320;SDS011;49449;48.800;9.534;2023-06-04T04:36:21;4.57;;;3.78;;
63320;SDS011;49449;48.800;9.534;2023-06-04T04:38:50;5.10;;;4.20;;
63320;SDS011;49449;48.800;9.534;2023-06-04T04:41:20;4.18;;;3.17;;
63320;SDS011;49449;48.800;9.534;2023-06-04T04:43:48;4.75;;;3.30;;
63320;SDS011;49449;48.800;9.534;2023-06-04T04:46:16;4.80;;;3.50;;
63320;SDS011;49449;48.800;9.534;2023-06-04T04:48:44;4.30;;;3.40;;
63320;SDS011;49449;48.800;9.534;2023-06-04T04:51:12;4.30;;;3.28;;
63320;SDS011;49449;48.800;9.534;2023-06-04T04:53:41;3.63;;;3.33;;
63320;SDS011;49449;48.800;9.534;2023-06-04T04:56:09;4.90;;;3.33;;
63320;SDS011;49449;48.800;9.534;2023-06-04T04:58:36;5.97;;;3.03;;
63320;SDS011;49449;48.800;9.534;2023-06-04T05:01:04;4.55;;;3.13;;
63320;SDS011;49449;48.800;9.534;2023-06-04T05:03:32;4.70;;;3.53;;
63320;SDS011;49449;48.800;9.534;2023-06-04T05:06:00;3.05;;;2.78;;
63320;SDS011;49449;48.800;9.534;2023-06-04T05:08:28;4.95;;;3.42;;
63320;SDS011;49449;48.800;9.534;2023-06-04T05:10:57;5.35;;;3.33;;
63320;SDS011;49449;48.800;9.534;2023-06-04T05:13:25;3.42;;;2.75;;
63320;SDS011;49449;48.800;9.534;2023-06-04T05:15:53;3.42;;;2.85;;
63320;SDS011;49449;48.800;9.534;2023-06-04T05:18:21;3.53;;;2.80;;
63320;SDS011;49449;48.800;9.534;2023-06-04T05:20:55;3.83;;;2.60;;
63320;SDS011;49449;48.800;9.534;2023-06-04T05:23:24;3.13;;;2.30;;
63320;SDS011;49449;48.800;9.534;2023-06-04T05:25:51;2.60;;;2.30;;
63320;SDS011;49449;48.800;9.534;2023-06-04T05:28:21;3.20;;;2.35;;
63320;SDS011;49449;48.800;9.534;2023-06-04T05:30:51;3.05;;;2.22;;
63320;SDS011;49449;48.800;9.534;2023-06-04T05:33:25;3.38;;;2.70;;
63320;SDS011;49449;48.800;9.534;2023-06-04T05:35:54;3.78;;;2.20;;
63320;SDS011;49449;48.800;9.534;2023-06-04T05:38:23;2.13;;;1.85;;
63320;SDS011;49449;48.800;9.534;2023-06-04T05:40:53;2.47;;;2.25;;
63320;SDS011;49449;48.800;9.534;2023-06-04T05:43:22;1.70;;;1.60;;
63320;SDS011;49449;48.800;9.534;2023-06-04T05:45:50;2.92;;;1.80;;
63320;SDS011;49449;48.800;9.534;2023-06-04T05:48:18;2.70;;;2.13;;
63320;SDS011;49449;48.800;9.534;2023-06-04T05:50:46;2.88;;;2.22;;
63320;SDS011;49449;48.800;9.534;2023-06-04T05:53:14;2.22;;;2.03;;
63320;SDS011;49449;48.800;9.534;2023-06-04T05:55:42;2.20;;;2.00;;
63320;SDS011;49449;48.800;9.534;2023-06-04T05:58:10;2.65;;;2.40;;
63320;SDS011;49449;48.800;9.534;2023-06-04T06:00:39;2.22;;;1.98;;
63320;SDS011;49449;48.800;9.534;2023-06-04T06:03:07;2.67;;;1.88;;
63320;SDS011;49449;48.800;9.534;2023-06-04T06:05:36;2.72;;;1.80;;
63320;SDS011;49449;48.800;9.534;2023-06-04T06:08:04;3.22;;;1.98;;
63320;SDS011;49449;48.800;9.534;2023-06-04T06:10:32;2.50;;;2.22;;
63320;SDS011;49449;48.800;9.534;2023-06-04T06:13:00;1.98;;;1.80;;
63320;SDS011;49449;48.800;9.534;2023-06-04T06:15:28;2.58;;;2.08;;
63320;SDS011;49449;48.800;9.534;2023-06-04T06:17:57;2.70;;;2.50;;
63320;SDS011;49449;48.800;9.534;2023-06-04T06:20:25;2.70;;;2.50;;
63320;SDS011;49449;48.800;9.534;2023-06-04T06:22:53;2.70;;;2.20;;
63320;SDS011;49449;48.800;9.534;2023-06-04T06:25:21;3.38;;;2.05;;
63320;SDS011;49449;48.800;9.534;2023-06-04T06:27:49;3.35;;;1.90;;
63320;SDS011;49449;48.800;9.534;2023-06-04T06:30:17;2.35;;;2.15;;
63320;SDS011;49449;48.800;9.534;2023-06-04T06:32:45;2.50;;;1.98;;
63320;SDS011;49449;48.800;9.534;2023-06-04T06:35:16;2.97;;;2.13;;
63320;SDS011;49449;48.800;9.534;2023-06-04T06:37:44;3.15;;;2.28;;
63320;SDS011;49449;48.800;9.534;2023-06-04T06:40:12;2.30;;;2.10;;
63320;SDS011;49449;48.800;9.534;2023-06-04T06:42:39;2.67;;;2.28;;
63320;SDS011;49449;48.800;9.534;2023-06-04T06:45:07;4.32;;;2.55;;
63320;SDS011;49449;48.800;9.534;2023-06-04T06:47:36;2.20;;;2.00;;
63320;SDS011;49449;48.800;9.534;2023-06-04T06:50:04;2.10;;;1.90;;
63320;SDS011;49449;48.800;9.534;2023-06-04T06:52:34;3.45;;;2.40;;
63320;SDS011;49449;48.800;9.534;2023-06-04T06:55:02;2.55;;;2.30;;
63320;SDS011;49449;48.800;9.534;2023-06-04T06:57:31;3.80;;;2.38;;
63320;SDS011;49449;48.800;9.534;2023-06-04T06:59:59;2.58;;;2.00;;
63320;SDS011;49449;48.800;9.534;2023-06-04T07:02:27;2.83;;;2.40;;
63320;SDS011;49449;48.800;9.534;2023-06-04T07:04:55;2.30;;;2.10;;
63320;SDS011;49449;48.800;9.534;2023-06-04T07:07:23;4.63;;;2.15;;
63320;SDS011;49449;48.800;9.534;2023-06-04T07:09:52;3.55;;;2.10;;
63320;SDS011;49449;48.800;9.534;2023-06-04T07:12:20;2.72;;;2.42;;
63320;SDS011;49449;48.800;9.534;2023-06-04T07:14:47;2.25;;;2.10;;
63320;SDS011;49449;48.800;9.534;2023-06-04T07:17:15;3.58;;;2.10;;
63320;SDS011;49449;48.800;9.534;2023-06-04T07:19:43;2.47;;;2.10;;
63320;SDS011;49449;48.800;9.534;2023-06-04T07:22:11;3.08;;;2.17;;
63320;SDS011;49449;48.800;9.534;2023-06-04T07:24:39;3.03;;;2.20;;
63320;SDS011;49449;48.800;9.534;2023-06-04T07:27:11;2.83;;;2.08;;
63320;SDS011;49449;48.800;9.534;2023-06-04T07:29:39;3.10;;;2.40;;
63320;SDS011;49449;48.800;9.534;2023-06-04T07:32:07;2.63;;;2.20;;
63320;SDS011;49449;48.800;9.534;2023-06-04T07:34:35;2.83;;;2.10;;
63320;SDS011;49449;48.800;9.534;2023-06-04T07:37:05;3.83;;;2.10;;
63320;SDS011;49449;48.800;9.534;2023-06-04T07:39:36;2.88;;;2.40;;
63320;SDS011;49449;48.800;9.534;2023-06-04T07:42:04;2.53;;;2.25;;
63320;SDS011;49449;48.800;9.534;2023-06-04T07:44:33;3.03;;;2.20;;
63320;SDS011;49449;48.800;9.534;2023-06-04T07:47:02;3.03;;;2.20;;
63320;SDS011;49449;48.800;9.534;2023-06-04T07:49:30;2.67;;;2.45;;
63320;SDS011;49449;48.800;9.534;2023-06-04T07:51:58;6.28;;;2.28;;
63320;SDS011;49449;48.800;9.534;2023-06-04T07:54:26;4.20;;;2.25;;
63320;SDS011;49449;48.800;9.534;2023-06-04T07:56:54;3.40;;;2.42;;
63320;SDS011;49449;48.800;9.534;2023-06-04T07:59:22;3.28;;;2.38;;
63320;SDS011;49449;48.800;9.534;2023-06-04T08:01:51;3.38;;;2.40;;
63320;SDS011;49449;48.800;9.534;2023-06-04T08:04:19;2.10;;;1.90;;
63320;SDS011;49449;48.800;9.534;2023-06-04T08:06:47;3.58;;;2.15;;
63320;SDS011;49449;48.800;9.534;2023-06-04T08:09:16;4.53;;;3.03;;
63320;SDS011;49449;48.800;9.534;2023-06-04T08:11:44;3.50;;;2.50;;
63320;SDS011;49449;48.800;9.534;2023-06-04T08:14:12;4.18;;;2.40;;
63320;SDS011;49449;48.800;9.534;2023-06-04T08:16:40;2.47;;;2.20;;
63320;SDS011;49449;48.800;9.534;2023-06-04T08:19:09;2.75;;;2.50;;
63320;SDS011;49449;48.800;9.534;2023-06-04T08:21:37;5.38;;;2.40;;
63320;SDS011;49449;48.800;9.534;2023-06-04T08:24:08;2.47;;;2.22;;
63320;SDS011;49449;48.800;9.534;2023-06-04T08:26:36;3.58;;;2.50;;
63320;SDS011;49449;48.800;9.534;2023-06-04T08:29:04;3.47;;;2.88;;
63320;SDS011;49449;48.800;9.534;2023-06-04T08:31:31;3.03;;;2.40;;
63320;SDS011;49449;48.800;9.534;2023-06-04T08:34:00;2.85;;;2.53;;
63320;SDS011;49449;48.800;9.534;2023-06-04T08:36:32;2.63;;;2.40;;
63320;SDS011;49449;48.800;9.534;2023-06-04T08:39:00;2.20;;;2.00;;
63320;SDS011;49449;48.800;9.534;2023-06-04T08:41:29;2.50;;;2.20;;
63320;SDS011;49449;48.800;9.534;2023-06-04T08:44:01;4.65;;;3.20;;
63320;SDS011;49449;48.800;9.534;2023-06-04T08:49:00;2.53;;;2.22;;
63320;SDS011;49449;48.800;9.534;2023-06-04T08:51:29;2.85;;;2.42;;
63320;SDS011;49449;48.800;9.534;2023-06-04T08:54:01;3.00;;;2.47;;
63320;SDS011;49449;48.800;9.534;2023-06-04T08:56:30;2.90;;;2.70;;
63320;SDS011;49449;48.800;9.534;2023-06-04T08:58:59;2.60;;;2.40;;
63320;SDS011;49449;48.800;9.534;2023-06-04T09:01:28;5.22;;;3.03;;
63320;SDS011;49449;48.800;9.534;2023-06-04T09:03:58;4.55;;;2.85;;
63320;SDS011;49449;48.800;9.534;2023-06-04T09:06:27;4.03;;;2.65;;
63320;SDS011;49449;48.800;9.534;2023-06-04T09:08:57;3.10;;;2.80;;
63320;SDS011;49449;48.800;9.534;2023-06-04T09:11:26;4.03;;;3.00;;
63320;SDS011;49449;48.800;9.534;2023-06-04T09:13:57;3.28;;;2.97;;
63320;SDS011;49449;48.800;9.534;2023-06-04T09:16:28;3.63;;;2.67;;
63320;SDS011;49449;48.800;9.534;2023-06-04T09:19:02;2.78;;;2.42;;
63320;SDS011;49449;48.800;9.534;2023-06-04T09:21:31;3.75;;;2.75;;
63320;SDS011;49449;48.800;9.534;2023-06-04T09:24:00;3.92;;;3.03;;
63320;SDS011;49449;48.800;9.534;2023-06-04T09:26:28;3.28;;;2.70;;
63320;SDS011;49449;48.800;9.534;2023-06-04T09:28:56;3.65;;;2.70;;
63320;SDS011;49449;48.800;9.534;2023-06-04T09:31:25;3.40;;;2.78;;
63320;SDS011;49449;48.800;9.534;2023-06-04T09:33:55;3.50;;;2.47;;
63320;SDS011;49449;48.800;9.534;2023-06-04T09:36:23;3.00;;;2.80;;
63320;SDS011;49449;48.800;9.534;2023-06-04T09:38:57;2.75;;;2.50;;
63320;SDS011;49449;48.800;9.534;2023-06-04T09:41:26;2.80;;;2.50;;
63320;SDS011;49449;48.800;9.534;2023-06-04T09:43:59;2.75;;;2.45;;
63320;SDS011;49449;48.800;9.534;2023-06-04T09:46:29;2.90;;;2.60;;
63320;SDS011;49449;48.800;9.534;2023-06-04T09:49:01;4.25;;;2.70;;
63320;SDS011;49449;48.800;9.534;2023-06-04T09:51:31;3.67;;;3.03;;
63320;SDS011;49449;48.800;9.534;2023-06-04T09:54:00;3.22;;;2.92;;
63320;SDS011;49449;48.800;9.534;2023-06-04T09:56:29;3.08;;;2.63;;
63320;SDS011;49449;48.800;9.534;2023-06-04T09:59:06;3.42;;;2.97;;
63320;SDS011;49449;48.800;9.534;2023-06-04T10:01:38;2.97;;;2.65;;
63320;SDS011;49449;48.800;9.534;2023-06-04T10:04:08;4.20;;;2.63;;
63320;SDS011;49449;48.800;9.534;2023-06-04T10:06:38;5.03;;;3.15;;
63320;SDS011;49449;48.800;9.534;2023-06-04T10:09:07;3.45;;;2.42;;
63320;SDS011;49449;48.800;9.534;2023-06-04T10:11:39;4.07;;;2.60;;
63320;SDS011;49449;48.800;9.534;2023-06-04T10:14:10;3.88;;;2.92;;
63320;SDS011;49449;48.800;9.534;2023-06-04T10:16:42;3.15;;;2.80;;
63320;SDS011;49449;48.800;9.534;2023-06-04T10:19:11;3.15;;;2.40;;
63320;SDS011;49449;48.800;9.534;2023-06-04T10:21:39;3.78;;;2.80;;
63320;SDS011;49449;48.800;9.534;2023-06-04T10:24:07;3.40;;;3.10;;
63320;SDS011;49449;48.800;9.534;2023-06-04T10:26:35;4.55;;;3.13;;
63320;SDS011;49449;48.800;9.534;2023-06-04T10:29:07;8.00;;;3.55;;
63320;SDS011;49449;48.800;9.534;2023-06-04T10:31:36;4.57;;;3.70;;
63320;SDS011;49449;48.800;9.534;2023-06-04T10:34:07;4.07;;;3.22;;
63320;SDS011;49449;48.800;9.534;2023-06-04T10:36:42;4.80;;;3.38;;
63320;SDS011;49449;48.800;9.534;2023-06-04T10:39:11;4.20;;;3.03;;
63320;SDS011;49449;48.800;9.534;2023-06-04T10:41:40;4.35;;;3.03;;
63320;SDS011;49449;48.800;9.534;2023-06-04T10:44:08;4.60;;;3.33;;
63320;SDS011;49449;48.800;9.534;2023-06-04T10:46:39;3.78;;;3.05;;
63320;SDS011;49449;48.800;9.534;2023-06-04T10:49:08;5.07;;;3.75;;
63320;SDS011;49449;48.800;9.534;2023-06-04T10:51:37;4.15;;;3.08;;
63320;SDS011;49449;48.800;9.534;2023-06-04T10:54:05;3.55;;;3.00;;
63320;SDS011;49449;48.800;9.534;2023-06-04T10:56:33;4.88;;;3.05;;
63320;SDS011;49449;48.800;9.534;2023-06-04T10:59:13;4.95;;;3.55;;
63320;SDS011;49449;48.800;9.534;2023-06-04T11:01:43;4.00;;;3.60;;
63320;SDS011;49449;48.800;9.534;2023-06-04T11:04:18;3.83;;;3.08;;
63320;SDS011;49449;48.800;9.534;2023-06-04T11:06:47;4.22;;;3.33;;
63320;SDS011;49449;48.800;9.534;2023-06-04T11:09:15;4.60;;;2.88;;
63320;SDS011;49449;48.800;9.534;2023-06-04T11:11:55;3.75;;;3.10;;
63320;SDS011;49449;48.800;9.534;2023-06-04T11:14:25;4.43;;;3.08;;
63320;SDS011;49449;48.800;9.534;2023-06-04T11:16:53;3.88;;;3.15;;
63320;SDS011;49449;48.800;9.534;2023-06-04T11:19:21;3.90;;;3.40;;
63320;SDS011;49449;48.800;9.534;2023-06-04T11:21:49;4.90;;;3.42;;
63320;SDS011;49449;48.800;9.534;2023-06-04T11:24:17;4.68;;;2.90;;
63320;SDS011;49449;48.800;9.534;2023-06-04T11:26:45;3.80;;;2.65;;
63320;SDS011;49449;48.800;9.534;2023-06-04T11:29:19;4.70;;;2.78;;
63320;SDS011;49449;48.800;9.534;2023-06-04T11:31:48;3.20;;;2.90;;
63320;SDS011;49449;48.800;9.534;2023-06-04T11:34:22;4.30;;;3.17;;
63320;SDS011;49449;48.800;9.534;2023-06-04T11:36:50;4.10;;;3.05;;
63320;SDS011;49449;48.800;9.534;2023-06-04T11:39:20;4.47;;;2.90;;
63320;SDS011;49449;48.800;9.534;2023-06-04T11:41:48;4.72;;;3.78;;
63320;SDS011;49449;48.800;9.534;2023-06-04T11:44:19;3.55;;;3.25;;
63320;SDS011;49449;48.800;9.534;2023-06-04T11:46:48;3.60;;;3.30;;
63320;SDS011;49449;48.800;9.534;2023-06-04T11:49:18;5.93;;;2.92;;
63320;SDS011;49449;48.800;9.534;2023-06-04T11:51:47;3.70;;;3.38;;
63320;SDS011;49449;48.800;9.534;2023-06-04T11:54:15;4.15;;;3.45;;
63320;SDS011;49449;48.800;9.534;2023-06-04T11:56:44;4.28;;;3.38;;
63320;SDS011;49449;48.800;9.534;2023-06-04T11:59:12;4.35;;;2.92;;
63320;SDS011;49449;48.800;9.534;2023-06-04T12:01:41;4.47;;;3.03;;
63320;SDS011;49449;48.800;9.534;2023-06-04T12:04:14;3.80;;;3.25;;
63320;SDS011;49449;48.800;9.534;2023-06-04T12:06:52;5.57;;;3.03;;
63320;SDS011;49449;48.800;9.534;2023-06-04T12:09:21;5.43;;;3.00;;
63320;SDS011;49449;48.800;9.534;2023-06-04T12:11:49;4.72;;;2.85;;
63320;SDS011;49449;48.800;9.534;2023-06-04T12:14:17;3.50;;;2.83;;
63320;SDS011;49449;48.800;9.534;2023-06-04T12:16:54;3.88;;;3.45;;
63320;SDS011;49449;48.800;9.534;2023-06-04T12:19:24;3.55;;;3.25;;
63320;SDS011;49449;48.800;9.534;2023-06-04T12:21:59;3.53;;;2.72;;
63320;SDS011;49449;48.800;9.534;2023-06-04T12:24:29;3.90;;;3.55;;
63320;SDS011;49449;48.800;9.534;2023-06-04T12:27:01;3.30;;;3.00;;
63320;SDS011;49449;48.800;9.534;2023-06-04T12:29:30;3.90;;;2.90;;
63320;SDS011;49449;48.800;9.534;2023-06-04T12:32:02;5.40;;;3.28;;
63320;SDS011;49449;48.800;9.534;2023-06-04T12:34:32;3.97;;;3.45;;
63320;SDS011;49449;48.800;9.534;2023-06-04T12:37:00;3.55;;;3.25;;
63320;SDS011;49449;48.800;9.534;2023-06-04T12:39:29;3.17;;;2.85;;
63320;SDS011;49449;48.800;9.534;2023-06-04T12:41:57;3.05;;;2.50;;
63320;SDS011;49449;48.800;9.534;2023-06-04T12:44:25;4.82;;;3.10;;
63320;SDS011;49449;48.800;9.534;2023-06-04T12:46:53;4.05;;;3.30;;
63320;SDS011;49449;48.800;9.534;2023-06-04T12:49:22;3.83;;;2.75;;
63320;SDS011;49449;48.800;9.534;2023-06-04T12:51:51;3.50;;;3.20;;
63320;SDS011;49449;48.800;9.534;2023-06-04T12:54:19;3.95;;;3.30;;
63320;SDS011;49449;48.800;9.534;2023-06-04T12:56:47;3.75;;;3.33;;
63320;SDS011;49449;48.800;9.534;2023-06-04T12:59:16;3.72;;;3.13;;
63320;SDS011;49449;48.800;9.534;2023-06-04T13:01:44;3.63;;;3.33;;
63320;SDS011;49449;48.800;9.534;2023-06-04T13:04:12;4.47;;;3.13;;
63320;SDS011;49449;48.800;9.534;2023-06-04T13:06:40;4.03;;;3.63;;
63320;SDS011;49449;48.800;9.534;2023-06-04T13:09:09;4.03;;;3.20;;
63320;SDS011;49449;48.800;9.534;2023-06-04T13:11:37;4.43;;;3.20;;
63320;SDS011;49449;48.800;9.534;2023-06-04T13:14:06;4.18;;;3.10;;
63320;SDS011;49449;48.800;9.534;2023-06-04T13:16:34;3.60;;;3.10;;
63320;SDS011;49449;48.800;9.534;2023-06-04T13:19:02;3.90;;;3.53;;
63320;SDS011;49449;48.800;9.534;2023-06-04T13:21:30;5.18;;;3.63;;
63320;SDS011;49449;48.800;9.534;2023-06-04T13:23:58;3.65;;;3.17;;
63320;SDS011;49449;48.800;9.534;2023-06-04T13:26:27;4.97;;;3.00;;
63320;SDS011;49449;48.800;9.534;2023-06-04T13:28:55;5.18;;;3.22;;
63320;SDS011;49449;48.800;9.534;2023-06-04T13:31:23;4.78;;;2.80;;
63320;SDS011;49449;48.800;9.534;2023-06-04T13:33:50;3.90;;;3.00;;
63320;SDS011;49449;48.800;9.534;2023-06-04T13:36:18;3.15;;;2.78;;
63320;SDS011;49449;48.800;9.534;2023-06-04T13:38:46;5.00;;;3.10;;
63320;SDS011;49449;48.800;9.534;2023-06-04T13:41:14;3.20;;;2.88;;
63320;SDS011;49449;48.800;9.534;2023-06-04T13:43:43;3.67;;;3.33;;
63320;SDS011;49449;48.800;9.534;2023-06-04T13:46:10;3.75;;;3.35;;
63320;SDS011;49449;48.800;9.534;2023-06-04T13:48:38;4.53;;;3.42;;
63320;SDS011;49449;48.800;9.534;2023-06-04T13:51:06;3.90;;;3.55;;
63320;SDS011;49449;48.800;9.534;2023-06-04T13:53:34;4.30;;;3.83;;
63320;SDS011;49449;48.800;9.534;2023-06-04T13:56:01;3.38;;;3.08;;
63320;SDS011;49449;48.800;9.534;2023-06-04T13:58:29;3.38;;;2.90;;
63320;SDS011;49449;48.800;9.534;2023-06-04T14:00:59;5.32;;;3.10;;
63320;SDS011;49449;48.800;9.534;2023-06-04T14:03:27;3.78;;;2.90;;
63320;SDS011;49449;48.800;9.534;2023-06-04T14:05:55;3.80;;;3.25;;
63320;SDS011;49449;48.800;9.534;2023-06-04T14:08:23;4.47;;;3.22;;
63320;SDS011;49449;48.800;9.534;2023-06-04T14:10:51;3.40;;;3.05;;
63320;SDS011;49449;48.800;9.534;2023-06-04T14:13:21;7.30;;;3.30;;
63320;SDS011;49449;48.800;9.534;2023-06-04T14:15:49;4.28;;;3.17;;
63320;SDS011;49449;48.800;9.534;2023-06-04T14:18:18;3.50;;;3.20;;
63320;SDS011;49449;48.800;9.534;2023-06-04T14:20:46;4.05;;;3.60;;
63320;SDS011;49449;48.800;9.534;2023-06-04T14:23:14;4.18;;;3.30;;
63320;SDS011;49449;48.800;9.534;2023-06-04T14:25:42;3.58;;;3.28;;
63320;SDS011;49449;48.800;9.534;2023-06-04T14:28:10;4.10;;;3.40;;
63320;SDS011;49449;48.800;9.534;2023-06-04T14:30:38;3.95;;;2.97;;
63320;SDS011;49449;48.800;9.534;2023-06-04T14:33:06;3.50;;;3.20;;
63320;SDS011;49449;48.800;9.534;2023-06-04T14:35:35;4.95;;;3.80;;
63320;SDS011;49449;48.800;9.534;2023-06-04T14:38:05;3.30;;;3.00;;
63320;SDS011;49449;48.800;9.534;2023-06-04T14:40:32;4.97;;;3.13;;
63320;SDS011;49449;48.800;9.534;2023-06-04T14:43:01;4.40;;;3.60;;
63320;SDS011;49449;48.800;9.534;2023-06-04T14:45:29;3.90;;;3.00;;
63320;SDS011;49449;48.800;9.534;2023-06-04T14:47:57;4.03;;;2.70;;
63320;SDS011;49449;48.800;9.534;2023-06-04T14:50:39;4.55;;;3.10;;
63320;SDS011;49449;48.800;9.534;2023-06-04T14:53:08;3.85;;;2.90;;
63320;SDS011;49449;48.800;9.534;2023-06-04T14:55:36;2.80;;;2.60;;
63320;SDS011;49449;48.800;9.534;2023-06-04T14:58:04;3.03;;;2.83;;
63320;SDS011;49449;48.800;9.534;2023-06-04T15:00:32;3.75;;;2.80;;
63320;SDS011;49449;48.800;9.534;2023-06-04T15:03:00;4.60;;;3.20;;